createdAt,value
2022-07-28T00:02:01.086Z,60.71
2022-07-28T00:04:19.179Z,61.62
2022-07-28T00:06:36.226Z,62.03
2022-07-28T00:08:54.618Z,62.20
2022-07-28T00:11:11.716Z,62.33
2022-07-28T00:13:28.841Z,62.59
2022-07-28T00:15:45.841Z,61.21
2022-07-28T00:18:02.910Z,61.60
2022-07-28T00:20:20.215Z,61.86
2022-07-28T00:22:37.432Z,61.54
2022-07-28T00:24:54.762Z,61.97
2022-07-28T00:27:11.828Z,62.41
2022-07-28T00:29:41.080Z,63.08
2022-07-28T00:32:06.223Z,61.58
2022-07-28T00:34:26.711Z,62.09
2022-07-28T00:36:43.773Z,63.12
2022-07-28T00:39:01.033Z,62.08
2022-07-28T00:41:22.298Z,63.70
2022-07-28T00:43:39.765Z,64.05
2022-07-28T00:45:56.999Z,62.21
2022-07-28T00:48:14.326Z,64.16
2022-07-28T00:50:32.580Z,64.65
2022-07-28T00:52:49.677Z,65.02
2022-07-28T00:55:07.694Z,64.62
2022-07-28T00:57:25.037Z,62.97
2022-07-28T00:59:41.998Z,64.83
2022-07-28T01:01:59.675Z,65.17
2022-07-28T01:04:17.460Z,64.44
2022-07-28T01:06:34.730Z,65.13
2022-07-28T01:08:52.419Z,65.43
2022-07-28T01:11:09.499Z,64.35
2022-07-28T01:13:28.891Z,64.41
2022-07-28T01:15:47.281Z,65.55
2022-07-28T01:18:04.350Z,65.59
2022-07-28T01:20:21.771Z,65.39
2022-07-28T01:22:38.933Z,65.28
2022-07-28T01:24:56.135Z,65.27
2022-07-28T01:27:13.151Z,65.98
2022-07-28T01:29:30.242Z,64.92
2022-07-28T01:31:47.739Z,64.98
2022-07-28T01:34:05.259Z,65.98
2022-07-28T01:36:22.586Z,66.07
2022-07-28T01:38:39.689Z,65.68
2022-07-28T01:40:56.874Z,66.41
2022-07-28T01:43:15.060Z,65.40
2022-07-28T01:45:32.453Z,66.22
2022-07-28T01:47:49.467Z,65.64
2022-07-28T01:50:10.814Z,65.99
2022-07-28T01:52:27.863Z,65.75
2022-07-28T01:54:45.102Z,66.24
2022-07-28T01:57:02.033Z,66.21
2022-07-28T01:59:19.612Z,66.25
2022-07-28T02:01:36.643Z,65.87
2022-07-28T02:03:53.867Z,66.83
2022-07-28T02:06:10.988Z,66.53
2022-07-28T02:08:28.281Z,66.65
2022-07-28T02:10:45.233Z,67.28
2022-07-28T02:13:02.561Z,67.65
2022-07-28T02:15:19.523Z,67.08
2022-07-28T02:17:37.897Z,66.80
2022-07-28T02:19:55.185Z,67.41
2022-07-28T02:22:13.264Z,67.06
2022-07-28T02:24:30.198Z,67.38
2022-07-28T02:26:47.189Z,67.51
2022-07-28T02:29:04.181Z,67.72
2022-07-28T02:31:21.733Z,67.61
2022-07-28T02:33:59.943Z,68.34
2022-07-28T02:36:16.542Z,68.56
2022-07-28T02:38:33.484Z,68.23
2022-07-28T02:40:50.632Z,68.22
2022-07-28T02:43:07.632Z,67.86
2022-07-28T02:45:25.002Z,68.26
2022-07-28T02:47:43.544Z,68.20
2022-07-28T02:50:00.625Z,68.62
2022-07-28T02:52:17.671Z,68.75
2022-07-28T02:54:34.722Z,68.83
2022-07-28T02:56:53.914Z,68.87
2022-07-28T02:59:11.211Z,68.63
2022-07-28T03:01:28.343Z,68.83
2022-07-28T03:03:46.261Z,69.21
2022-07-28T03:06:03.395Z,68.90
2022-07-28T03:08:20.484Z,69.36
2022-07-28T03:10:37.881Z,69.40
2022-07-28T03:12:55.143Z,69.46
2022-07-28T03:15:12.516Z,69.29
2022-07-28T03:17:31.250Z,69.39
2022-07-28T03:19:49.281Z,69.55
2022-07-28T03:22:06.630Z,69.18
2022-07-28T03:24:27.771Z,69.94
2022-07-28T03:26:44.929Z,70.11
2022-07-28T03:29:02.656Z,70.56
2022-07-28T03:31:19.853Z,70.20
2022-07-28T03:33:36.857Z,70.14
2022-07-28T03:35:55.145Z,70.08
2022-07-28T03:38:12.186Z,69.79
2022-07-28T03:40:29.264Z,69.50
2022-07-28T03:42:46.589Z,69.68
2022-07-28T03:45:03.581Z,69.64
2022-07-28T03:47:20.859Z,69.18
2022-07-28T03:49:37.958Z,70.06
2022-07-28T03:51:56.105Z,69.29
2022-07-28T03:54:13.517Z,69.72
2022-07-28T03:56:31.021Z,70.07
2022-07-28T03:58:47.998Z,69.73
2022-07-28T04:01:05.272Z,69.61
2022-07-28T04:03:36.651Z,69.44
2022-07-28T04:05:59.345Z,69.89
2022-07-28T04:08:16.840Z,69.56
2022-07-28T04:10:33.850Z,69.88
2022-07-28T04:12:51.183Z,69.92
2022-07-28T04:15:08.530Z,69.74
2022-07-28T04:17:27.341Z,70.12
2022-07-28T04:19:44.291Z,70.55
2022-07-28T04:22:01.353Z,69.95
2022-07-28T04:24:19.035Z,69.46
2022-07-28T04:26:36.473Z,69.23
2022-07-28T04:28:53.768Z,69.30
2022-07-28T04:31:10.965Z,69.52
2022-07-28T04:33:28.062Z,69.65
2022-07-28T04:35:45.188Z,69.07
2022-07-28T04:38:02.181Z,69.43
2022-07-28T04:40:19.411Z,69.24
2022-07-28T04:42:36.411Z,68.91
2022-07-28T04:44:54.342Z,69.03
2022-07-28T04:47:11.722Z,69.14
2022-07-28T04:49:29.076Z,69.05
2022-07-28T04:51:47.495Z,68.64
2022-07-28T04:54:04.673Z,68.81
2022-07-28T04:56:21.712Z,68.80
2022-07-28T04:58:38.773Z,68.30
2022-07-28T05:00:56.814Z,68.62
2022-07-28T05:03:16.556Z,68.74
2022-07-28T05:05:33.885Z,68.72
2022-07-28T05:07:50.900Z,68.69
2022-07-28T05:10:08.311Z,68.78
2022-07-28T05:12:25.822Z,68.39
2022-07-28T05:14:43.153Z,67.63
2022-07-28T05:17:00.556Z,67.14
2022-07-28T05:19:17.855Z,67.11
2022-07-28T05:21:35.919Z,67.03
2022-07-28T05:23:53.103Z,65.92
2022-07-28T05:26:10.208Z,66.33
2022-07-28T05:28:27.228Z,66.22
2022-07-28T05:30:44.286Z,65.79
2022-07-28T05:33:01.362Z,66.75
2022-07-28T05:35:18.424Z,66.76
2022-07-28T05:37:35.692Z,65.06
2022-07-28T05:39:53.032Z,66.12
2022-07-28T05:42:10.099Z,65.44
2022-07-28T05:44:27.385Z,65.18
2022-07-28T05:46:44.407Z,65.61
2022-07-28T05:49:01.435Z,64.21
2022-07-28T05:51:18.537Z,65.76
2022-07-28T05:53:35.805Z,63.96
2022-07-28T05:56:00.182Z,63.97
2022-07-28T05:58:18.565Z,64.05
2022-07-28T06:00:36.808Z,63.90
2022-07-28T06:02:53.849Z,64.25
2022-07-28T06:05:12.183Z,63.97
2022-07-28T06:07:42.646Z,62.17
2022-07-28T06:10:02.464Z,64.69
2022-07-28T06:12:21.425Z,64.23
2022-07-28T06:14:39.517Z,63.56
2022-07-28T06:16:56.871Z,62.37
2022-07-28T06:19:13.932Z,62.30
2022-07-28T06:21:31.216Z,61.34
2022-07-28T06:23:48.805Z,61.33
2022-07-28T06:26:05.759Z,61.93
2022-07-28T06:28:22.744Z,61.41
2022-07-28T06:30:39.651Z,61.37
2022-07-28T06:32:56.701Z,61.14
2022-07-28T06:35:14.619Z,60.76
2022-07-28T06:37:31.655Z,59.98
2022-07-28T06:39:49.742Z,58.44
2022-07-28T06:42:07.970Z,57.64
2022-07-28T06:44:42.638Z,57.27
2022-07-28T06:47:03.357Z,55.56
2022-07-28T06:49:20.522Z,54.65
2022-07-28T06:51:38.830Z,55.10
2022-07-28T06:53:58.472Z,54.76
2022-07-28T06:56:16.091Z,54.93
2022-07-28T06:58:34.038Z,54.34
2022-07-28T07:00:52.448Z,55.04
2022-07-28T07:03:10.004Z,54.80
2022-07-28T07:05:29.581Z,54.42
2022-07-28T07:07:46.859Z,53.44
2022-07-28T07:10:03.867Z,53.26
2022-07-28T07:12:21.183Z,53.69
2022-07-28T07:14:38.429Z,54.07
2022-07-28T07:16:55.468Z,51.97
2022-07-28T07:19:16.017Z,53.75
2022-07-28T07:21:33.472Z,53.94
2022-07-28T07:23:50.487Z,51.19
2022-07-28T07:26:07.597Z,52.66
2022-07-28T07:28:25.855Z,51.10
2022-07-28T07:30:42.894Z,50.88
2022-07-28T07:32:59.973Z,51.86
2022-07-28T07:35:17.252Z,50.51
2022-07-28T07:37:34.320Z,51.63
2022-07-28T07:39:53.338Z,51.11
2022-07-28T07:42:10.330Z,50.49
2022-07-28T07:44:27.650Z,48.96
2022-07-28T07:46:44.729Z,48.88
2022-07-28T07:49:01.798Z,48.69
2022-07-28T07:51:19.951Z,48.31
2022-07-28T07:53:38.238Z,48.15
2022-07-28T07:55:55.667Z,47.94
2022-07-28T07:58:15.204Z,46.96
2022-07-28T08:00:32.507Z,47.13
2022-07-28T08:02:49.556Z,45.09
2022-07-28T08:05:07.323Z,45.50
2022-07-28T08:07:25.311Z,45.83
2022-07-28T08:09:42.942Z,46.20
2022-07-28T08:11:59.987Z,44.66
2022-07-28T08:14:18.006Z,44.13
2022-07-28T08:16:35.697Z,45.33
2022-07-28T08:18:52.805Z,45.12
2022-07-28T08:21:09.721Z,45.35
2022-07-28T08:23:26.756Z,45.72
2022-07-28T08:25:44.049Z,45.39
2022-07-28T08:28:02.015Z,45.98
2022-07-28T08:30:23.041Z,44.85
2022-07-28T08:32:42.538Z,45.54
2022-07-28T08:35:22.627Z,44.43
2022-07-28T08:37:36.812Z,45.66
2022-07-28T08:39:54.098Z,45.37
2022-07-28T08:42:11.124Z,45.73
2022-07-28T08:44:28.115Z,45.65
2022-07-28T08:46:45.115Z,45.06
2022-07-28T08:49:02.359Z,45.26
2022-07-28T08:51:19.647Z,44.54
2022-07-28T08:53:36.999Z,44.26
2022-07-28T08:55:53.993Z,43.30
2022-07-28T08:58:11.049Z,43.53
2022-07-28T09:00:28.421Z,43.75
2022-07-28T09:02:45.605Z,44.51
2022-07-28T09:05:02.789Z,43.65
2022-07-28T09:07:20.054Z,44.41
2022-07-28T09:09:38.319Z,43.55
2022-07-28T09:11:55.269Z,43.71
2022-07-28T09:14:12.560Z,43.48
2022-07-28T09:16:30.139Z,43.97
2022-07-28T09:18:47.455Z,43.95
2022-07-28T09:21:04.476Z,44.13
2022-07-28T09:23:42.652Z,43.90
2022-07-28T09:25:58.400Z,43.66
2022-07-28T09:28:15.472Z,43.27
2022-07-28T09:30:37.246Z,42.65
2022-07-28T09:33:02.948Z,43.46
2022-07-28T09:35:20.984Z,43.18
2022-07-28T09:37:37.959Z,43.56
2022-07-28T09:39:55.008Z,44.81
2022-07-28T09:42:12.288Z,43.34
2022-07-28T09:44:29.354Z,42.88
2022-07-28T09:46:46.826Z,41.16
2022-07-28T09:49:04.187Z,41.12
2022-07-28T09:51:23.017Z,42.44
2022-07-28T09:53:40.351Z,41.27
2022-07-28T09:55:57.929Z,40.83
2022-07-28T09:58:15.028Z,40.60
2022-07-28T10:00:32.009Z,41.61
2022-07-28T10:02:52.617Z,40.63
2022-07-28T10:05:09.954Z,40.03
2022-07-28T10:07:27.921Z,41.52
2022-07-28T10:09:46.503Z,40.06
2022-07-28T10:12:03.450Z,39.64
2022-07-28T10:14:20.703Z,40.06
2022-07-28T10:16:39.072Z,39.57
2022-07-28T10:18:56.043Z,39.54
2022-07-28T10:21:13.386Z,38.96
2022-07-28T10:23:30.743Z,39.63
2022-07-28T10:25:48.077Z,39.25
2022-07-28T10:28:05.089Z,39.10
2022-07-28T10:30:22.039Z,39.47
2022-07-28T10:32:39.050Z,39.16
2022-07-28T10:34:56.093Z,37.79
2022-07-28T10:37:13.128Z,38.85
2022-07-28T10:39:30.411Z,37.46
2022-07-28T10:41:47.340Z,36.77
2022-07-28T10:44:05.626Z,37.50
2022-07-28T10:46:22.713Z,35.82
2022-07-28T10:48:40.102Z,36.58
2022-07-28T10:51:01.638Z,36.96
2022-07-28T10:53:18.710Z,37.24
2022-07-28T10:55:36.462Z,36.96
2022-07-28T10:58:01.932Z,37.10
2022-07-28T11:00:31.732Z,38.47
2022-07-28T11:03:00.375Z,39.25
2022-07-28T11:05:17.525Z,38.14
2022-07-28T11:07:34.491Z,39.33
2022-07-28T11:09:52.417Z,38.86
2022-07-28T11:12:10.090Z,38.22
2022-07-28T11:14:27.475Z,38.22
2022-07-28T11:16:44.765Z,37.37
2022-07-28T11:19:02.117Z,37.59
2022-07-28T11:21:22.827Z,37.59
2022-07-28T11:23:46.864Z,37.98
2022-07-28T11:26:05.106Z,36.45
2022-07-28T11:28:22.384Z,38.11
2022-07-28T11:30:39.710Z,37.67
2022-07-28T11:32:56.819Z,37.80
2022-07-28T11:35:13.832Z,37.55
2022-07-28T11:37:30.905Z,37.62
2022-07-28T11:39:47.997Z,37.35
2022-07-28T11:42:05.035Z,36.43
2022-07-28T11:44:21.988Z,36.78
2022-07-28T11:46:40.721Z,36.46
2022-07-28T11:48:57.922Z,35.85
2022-07-28T11:51:15.014Z,36.30
2022-07-28T11:53:32.098Z,35.52
2022-07-28T11:55:49.673Z,35.89
2022-07-28T11:58:19.937Z,36.21
2022-07-28T12:00:38.347Z,36.77
2022-07-28T12:02:55.411Z,37.27
2022-07-28T12:05:12.591Z,37.27
2022-07-28T12:07:30.811Z,36.54
2022-07-28T12:09:47.953Z,37.08
2022-07-28T12:12:05.063Z,37.22
2022-07-28T12:14:22.035Z,36.53
2022-07-28T12:16:39.713Z,36.31
2022-07-28T12:18:58.227Z,36.37
2022-07-28T12:21:16.914Z,36.34
2022-07-28T12:23:38.935Z,34.82
2022-07-28T12:26:03.149Z,34.80
2022-07-28T12:28:20.176Z,35.75
2022-07-28T12:30:37.131Z,35.90
2022-07-28T12:32:56.903Z,35.59
2022-07-28T12:35:14.049Z,34.44
2022-07-28T12:37:32.395Z,35.01
2022-07-28T12:39:49.449Z,35.13
2022-07-28T12:42:06.406Z,36.45
2022-07-28T12:44:23.577Z,36.43
2022-07-28T12:46:41.674Z,35.16
2022-07-28T12:48:59.031Z,35.32
2022-07-28T12:51:16.063Z,35.79
2022-07-28T12:53:33.050Z,36.16
2022-07-28T12:55:50.932Z,35.70
2022-07-28T12:58:08.016Z,36.63
2022-07-28T13:00:25.696Z,36.54
2022-07-28T13:02:42.858Z,36.86
2022-07-28T13:05:00.194Z,36.50
2022-07-28T13:07:17.508Z,37.87
2022-07-28T13:09:35.407Z,36.98
2022-07-28T13:11:52.546Z,37.35
2022-07-28T13:14:12.030Z,37.55
2022-07-28T13:16:29.595Z,36.87
2022-07-28T13:18:46.913Z,37.58
2022-07-28T13:21:04.906Z,37.62
2022-07-28T13:23:22.120Z,36.75
2022-07-28T13:25:39.446Z,36.59
2022-07-28T13:27:56.743Z,36.75
2022-07-28T13:30:14.863Z,37.17
2022-07-28T13:32:32.111Z,36.82
2022-07-28T13:34:50.240Z,37.19
2022-07-28T13:37:07.485Z,36.41
2022-07-28T13:39:24.585Z,35.55
2022-07-28T13:41:58.015Z,37.03
2022-07-28T13:44:16.085Z,37.35
2022-07-28T13:46:35.902Z,37.29
2022-07-28T13:48:59.818Z,36.72
2022-07-28T13:51:17.469Z,37.26
2022-07-28T13:53:39.612Z,37.35
2022-07-28T13:55:56.727Z,37.24
2022-07-28T13:58:13.774Z,36.34
2022-07-28T14:00:32.459Z,37.80
2022-07-28T14:02:49.799Z,37.51
2022-07-28T14:05:07.917Z,38.11
2022-07-28T14:07:24.860Z,37.89
2022-07-28T14:09:41.977Z,38.15
2022-07-28T14:11:59.893Z,38.13
2022-07-28T14:14:19.996Z,38.49
2022-07-28T14:16:37.682Z,38.39
2022-07-28T14:18:54.766Z,38.77
2022-07-28T14:21:11.870Z,38.63
2022-07-28T14:23:29.165Z,39.12
2022-07-28T14:25:49.424Z,39.09
2022-07-28T14:28:07.691Z,39.23
2022-07-28T14:30:24.741Z,39.34
2022-07-28T14:32:42.715Z,38.94
2022-07-28T14:34:59.754Z,39.24
2022-07-28T14:37:20.011Z,39.10
2022-07-28T14:39:37.016Z,39.67
2022-07-28T14:41:54.327Z,38.58
2022-07-28T14:44:14.589Z,38.73
2022-07-28T14:46:41.403Z,39.26
2022-07-28T14:48:58.476Z,39.67
2022-07-28T14:51:15.793Z,39.70
2022-07-28T14:53:35.114Z,39.69
2022-07-28T14:55:56.981Z,39.31
2022-07-28T14:58:15.106Z,39.08
2022-07-28T15:00:32.433Z,39.40
2022-07-28T15:02:49.748Z,39.03
2022-07-28T15:05:07.115Z,38.84
2022-07-28T15:07:24.100Z,38.68
2022-07-28T15:09:44.213Z,38.41
2022-07-28T15:12:03.220Z,39.33
2022-07-28T15:14:21.147Z,39.04
2022-07-28T15:16:38.901Z,39.48
2022-07-28T15:18:57.023Z,38.69
2022-07-28T15:21:14.272Z,39.40
2022-07-28T15:23:31.324Z,38.16
2022-07-28T15:25:50.470Z,39.65
2022-07-28T15:28:07.508Z,39.46
2022-07-28T15:30:25.476Z,39.11
2022-07-28T15:32:55.806Z,39.33
2022-07-28T15:35:14.680Z,38.83
2022-07-28T15:37:31.580Z,38.70
2022-07-28T15:39:48.891Z,38.64
2022-07-28T15:42:05.917Z,38.43
2022-07-28T15:44:26.198Z,38.80
2022-07-28T15:46:43.358Z,39.14
2022-07-28T15:49:04.213Z,39.05
2022-07-28T15:51:25.805Z,39.33
2022-07-28T15:53:43.391Z,39.20
2022-07-28T15:56:00.656Z,39.56
2022-07-28T15:58:17.980Z,39.87
2022-07-28T16:00:35.619Z,39.68
2022-07-28T16:02:52.895Z,40.32
2022-07-28T16:05:10.265Z,40.42
2022-07-28T16:07:27.543Z,39.97
2022-07-28T16:09:45.878Z,40.80
2022-07-28T16:12:04.014Z,39.75
2022-07-28T16:14:25.223Z,40.66
2022-07-28T16:16:42.588Z,39.74
2022-07-28T16:19:00.520Z,40.56
2022-07-28T16:21:17.574Z,40.09
2022-07-28T16:23:37.566Z,39.27
2022-07-28T16:25:55.574Z,40.00
2022-07-28T16:28:12.931Z,40.02
2022-07-28T16:30:29.953Z,40.60
2022-07-28T16:32:47.964Z,40.23
2022-07-28T16:35:05.230Z,40.84
2022-07-28T16:37:22.127Z,41.01
2022-07-28T16:39:39.119Z,40.48
2022-07-28T16:41:57.553Z,40.69
2022-07-28T16:44:15.181Z,40.89
2022-07-28T16:46:32.672Z,40.77
2022-07-28T16:48:49.958Z,40.87
2022-07-28T16:51:07.025Z,40.36
2022-07-28T16:53:24.000Z,41.54
2022-07-28T16:55:41.287Z,40.78
2022-07-28T16:57:59.566Z,40.49
2022-07-28T17:00:16.483Z,40.32
2022-07-28T17:02:33.513Z,40.42
2022-07-28T17:04:50.631Z,40.82
2022-07-28T17:07:08.650Z,41.11
2022-07-28T17:09:25.726Z,41.23
2022-07-28T17:11:42.951Z,40.72
2022-07-28T17:14:00.281Z,42.12
2022-07-28T17:16:17.765Z,40.93
2022-07-28T17:18:34.857Z,41.62
2022-07-28T17:20:52.084Z,41.06
2022-07-28T17:23:09.138Z,41.47
2022-07-28T17:28:04.378Z,41.92
2022-07-28T17:30:21.618Z,42.24
2022-07-28T17:32:38.537Z,41.69
2022-07-28T17:35:00.304Z,43.24
2022-07-28T17:37:17.267Z,43.12
2022-07-28T17:39:34.314Z,42.82
2022-07-28T17:41:51.277Z,42.87
2022-07-28T17:44:08.543Z,42.71
2022-07-28T17:46:26.717Z,42.73
2022-07-28T17:48:44.131Z,43.46
2022-07-28T17:51:01.255Z,42.23
2022-07-28T17:53:19.275Z,42.56
2022-07-28T17:55:55.822Z,43.34
2022-07-28T17:58:13.812Z,42.32
2022-07-28T18:00:31.108Z,42.21
2022-07-28T18:02:48.437Z,41.71
2022-07-28T18:05:06.235Z,42.66
2022-07-28T18:07:28.368Z,42.87
2022-07-28T18:10:05.261Z,43.12
2022-07-28T18:12:22.304Z,44.25
2022-07-28T18:14:39.646Z,44.37
2022-07-28T18:16:56.924Z,42.99
2022-07-28T18:19:14.201Z,42.93
2022-07-28T18:21:31.993Z,44.29
2022-07-28T18:23:52.269Z,44.36
2022-07-28T18:26:11.960Z,45.24
2022-07-28T18:28:29.516Z,44.25
2022-07-28T18:30:46.878Z,45.59
2022-07-28T18:33:03.925Z,44.87
2022-07-28T18:35:20.907Z,46.61
2022-07-28T18:37:42.246Z,45.67
2022-07-28T18:40:02.280Z,46.59
2022-07-28T18:42:19.546Z,47.06
2022-07-28T18:44:36.829Z,47.00
2022-07-28T18:46:53.964Z,47.02
2022-07-28T18:49:11.163Z,48.07
2022-07-28T18:51:28.063Z,48.42
2022-07-28T18:53:45.029Z,48.94
2022-07-28T18:56:02.347Z,49.45
2022-07-28T18:58:19.299Z,49.45
2022-07-28T19:00:36.383Z,49.70
2022-07-28T19:02:53.510Z,50.04
2022-07-28T19:05:10.878Z,50.72
2022-07-28T19:07:27.897Z,51.61
2022-07-28T19:09:45.206Z,50.59
2022-07-28T19:12:02.173Z,50.59
2022-07-28T19:16:37.917Z,50.99
2022-07-28T19:18:54.991Z,51.12
2022-07-28T19:21:12.187Z,51.17
2022-07-28T19:23:29.221Z,52.06
2022-07-28T19:25:46.783Z,51.93
2022-07-28T19:28:04.149Z,51.79
2022-07-28T19:30:21.404Z,52.37
2022-07-28T19:32:39.448Z,52.66
2022-07-28T19:34:57.465Z,53.09
2022-07-28T19:37:16.998Z,52.23
2022-07-28T19:39:34.264Z,53.56
2022-07-28T19:41:52.302Z,53.87
2022-07-28T19:44:09.326Z,54.91
2022-07-28T19:46:27.700Z,55.66
2022-07-28T19:48:44.814Z,55.24
2022-07-28T19:51:01.934Z,54.34
2022-07-28T19:53:19.290Z,56.00
2022-07-28T19:55:42.548Z,55.11
2022-07-28T19:58:07.899Z,55.63
2022-07-28T20:00:25.910Z,56.07
2022-07-28T20:02:43.075Z,55.58
2022-07-28T20:05:02.134Z,55.71
2022-07-28T20:07:19.128Z,57.10
2022-07-28T20:09:36.377Z,56.64
2022-07-28T20:11:53.668Z,56.78
2022-07-28T20:14:10.747Z,57.28
2022-07-28T20:16:28.035Z,56.99
2022-07-28T20:18:46.430Z,57.16
2022-07-28T20:21:03.387Z,57.37
2022-07-28T20:23:21.030Z,58.09
2022-07-28T20:25:38.112Z,57.92
2022-07-28T20:27:56.451Z,58.08
2022-07-28T20:30:13.699Z,58.14
2022-07-28T20:32:30.777Z,58.22
2022-07-28T20:34:48.800Z,58.52
2022-07-28T20:37:06.194Z,58.49
2022-07-28T20:39:44.892Z,59.27
2022-07-28T20:42:02.550Z,59.24
2022-07-28T20:44:28.794Z,59.20
2022-07-28T20:46:46.904Z,59.10
2022-07-28T20:49:05.616Z,59.02
2022-07-28T20:51:22.624Z,58.68
2022-07-28T20:53:39.668Z,60.19
2022-07-28T20:55:56.915Z,59.55
2022-07-28T20:58:14.202Z,60.14
2022-07-28T21:00:31.437Z,60.89
2022-07-28T21:02:48.643Z,60.16
2022-07-28T21:05:05.930Z,59.94
2022-07-28T21:08:04.430Z,59.71
2022-07-28T21:10:00.724Z,60.12
2022-07-28T21:12:17.792Z,61.03
2022-07-28T21:14:35.052Z,60.04
2022-07-28T21:16:52.157Z,59.88
2022-07-28T21:19:09.565Z,60.45
2022-07-28T21:21:27.602Z,61.92
2022-07-28T21:23:44.624Z,61.22
2022-07-28T21:26:02.672Z,62.11
2022-07-28T21:28:19.761Z,61.83
2022-07-28T21:30:38.024Z,61.07
2022-07-28T21:32:55.119Z,61.34
2022-07-28T21:35:14.303Z,61.08
2022-07-28T21:37:31.505Z,61.16
2022-07-28T21:39:51.261Z,62.50
2022-07-28T21:42:09.347Z,62.41
2022-07-28T21:44:26.676Z,62.14
2022-07-28T21:46:44.646Z,62.06
2022-07-28T21:49:01.954Z,62.31
2022-07-28T21:51:21.366Z,62.72
2022-07-28T21:53:39.790Z,61.84
2022-07-28T21:55:57.115Z,62.37
2022-07-28T21:58:14.075Z,61.39
2022-07-28T22:00:31.048Z,63.00
2022-07-28T22:02:48.312Z,63.22
2022-07-28T22:05:06.007Z,62.01
2022-07-28T22:07:23.314Z,62.13
2022-07-28T22:09:40.682Z,62.77
2022-07-28T22:11:58.933Z,61.65
2022-07-28T22:14:16.404Z,62.10
2022-07-28T22:16:33.624Z,61.41
2022-07-28T22:18:50.665Z,61.61
2022-07-28T22:21:07.726Z,62.35
2022-07-28T22:23:28.982Z,62.42
2022-07-28T22:25:47.234Z,61.38
2022-07-28T22:28:05.950Z,63.75
2022-07-28T22:30:23.005Z,62.96
2022-07-28T22:32:40.049Z,61.55
2022-07-28T22:34:57.099Z,63.30
2022-07-28T22:37:17.082Z,62.38
2022-07-28T22:39:34.115Z,62.78
2022-07-28T22:41:51.443Z,63.38
2022-07-28T22:44:08.408Z,62.75
2022-07-28T22:46:25.504Z,63.38
2022-07-28T22:48:42.902Z,62.14
2022-07-28T22:51:00.179Z,62.42
2022-07-28T22:53:17.236Z,62.85
2022-07-28T22:55:34.842Z,63.65
2022-07-28T22:57:53.073Z,62.48
2022-07-28T23:00:10.371Z,63.30
2022-07-28T23:02:27.378Z,64.46
2022-07-28T23:04:51.393Z,63.05
2022-07-28T23:07:12.181Z,64.21
2022-07-28T23:09:30.752Z,64.29
2022-07-28T23:11:54.519Z,63.56
2022-07-28T23:14:13.217Z,64.65
2022-07-28T23:16:30.631Z,64.94
2022-07-28T23:18:47.622Z,62.94
2022-07-28T23:21:04.689Z,64.36
2022-07-28T23:23:21.717Z,64.55
2022-07-28T23:25:39.805Z,63.26
2022-07-28T23:27:56.794Z,64.27
2022-07-28T23:30:14.153Z,64.92
2022-07-28T23:32:31.385Z,64.93
2022-07-28T23:34:48.652Z,63.24
2022-07-28T23:37:05.751Z,63.68
2022-07-28T23:39:22.766Z,64.27
2022-07-28T23:41:40.725Z,66.36
2022-07-28T23:43:57.757Z,64.94
2022-07-28T23:46:15.068Z,64.30
2022-07-28T23:48:32.865Z,65.46
2022-07-28T23:50:50.904Z,64.95
2022-07-28T23:53:08.204Z,66.17
2022-07-28T23:55:25.144Z,66.78
2022-07-28T23:57:42.283Z,66.54
2022-07-28T23:59:59.545Z,67.01
